sensor_id;sensor_type;location;lat;lon;timestamp;noise_LAeq;noise_LA_min;noise_LA_max;noise_LA01;noise_LA95
61095;Laerm;20450;49.074;9.158;2023-09-08T00:01:29;38.70;35.36;41.61;;
61095;Laerm;20450;49.074;9.158;2023-09-08T00:03:58;39.47;35.31;43.34;;
61095;Laerm;20450;49.074;9.158;2023-09-08T00:06:27;38.87;34.69;41.89;;
61095;Laerm;20450;49.074;9.158;2023-09-08T00:08:54;38.79;35.66;43.77;;
61095;Laerm;20450;49.074;9.158;2023-09-08T00:11:21;38.73;35.04;45.01;;
61095;Laerm;20450;49.074;9.158;2023-09-08T00:13:48;38.72;35.04;43.19;;
61095;Laerm;20450;49.074;9.158;2023-09-08T00:16:15;39.18;35.36;48.40;;
61095;Laerm;20450;49.074;9.158;2023-09-08T00:18:43;39.16;35.36;43.44;;
61095;Laerm;20450;49.074;9.158;2023-09-08T00:21:11;38.94;34.69;46.59;;
61095;Laerm;20450;49.074;9.158;2023-09-08T00:23:38;38.68;35.66;41.68;;
61095;Laerm;20450;49.074;9.158;2023-09-08T00:26:05;39.02;35.36;43.28;;
61095;Laerm;20450;49.074;9.158;2023-09-08T00:28:32;38.39;35.36;41.06;;
61095;Laerm;20450;49.074;9.158;2023-09-08T00:30:59;39.51;35.66;43.44;;
61095;Laerm;20450;49.074;9.158;2023-09-08T00:33:26;40.08;35.66;44.62;;
61095;Laerm;20450;49.074;9.158;2023-09-08T00:35:55;39.20;34.69;42.88;;
61095;Laerm;20450;49.074;9.158;2023-09-08T00:38:23;39.09;35.94;42.71;;
61095;Laerm;20450;49.074;9.158;2023-09-08T00:40:50;39.07;35.94;42.47;;
61095;Laerm;20450;49.074;9.158;2023-09-08T00:43:19;38.55;35.04;41.22;;
61095;Laerm;20450;49.074;9.158;2023-09-08T00:45:46;38.76;35.04;41.06;;
61095;Laerm;20450;49.074;9.158;2023-09-08T00:48:14;38.61;35.36;41.46;;
61095;Laerm;20450;49.074;9.158;2023-09-08T00:50:41;38.63;35.36;41.38;;
61095;Laerm;20450;49.074;9.158;2023-09-08T00:53:11;38.70;34.31;42.47;;
61095;Laerm;20450;49.074;9.158;2023-09-08T00:55:40;38.64;35.36;42.53;;
61095;Laerm;20450;49.074;9.158;2023-09-08T00:58:07;38.81;35.36;41.53;;
61095;Laerm;20450;49.074;9.158;2023-09-08T01:00:35;40.29;33.90;71.99;;
61095;Laerm;20450;49.074;9.158;2023-09-08T01:03:02;38.46;35.36;42.03;;
61095;Laerm;20450;49.074;9.158;2023-09-08T01:05:32;38.47;35.04;41.55;;
61095;Laerm;20450;49.074;9.158;2023-09-08T01:08:01;38.55;34.69;42.22;;
61095;Laerm;20450;49.074;9.158;2023-09-08T01:10:30;38.46;35.66;40.98;;
61095;Laerm;20450;49.074;9.158;2023-09-08T01:12:57;38.85;35.04;42.22;;
61095;Laerm;20450;49.074;9.158;2023-09-08T01:15:24;38.41;35.04;41.82;;
61095;Laerm;20450;49.074;9.158;2023-09-08T01:17:55;38.60;35.36;41.68;;
61095;Laerm;20450;49.074;9.158;2023-09-08T01:20:27;39.80;35.36;44.31;;
61095;Laerm;20450;49.074;9.158;2023-09-08T01:23:13;38.38;35.36;43.81;;
61095;Laerm;20450;49.074;9.158;2023-09-08T01:25:50;38.77;35.04;43.14;;
61095;Laerm;20450;49.074;9.158;2023-09-08T01:28:21;38.50;35.36;41.75;;
61095;Laerm;20450;49.074;9.158;2023-09-08T01:30:50;39.34;35.04;43.77;;
61095;Laerm;20450;49.074;9.158;2023-09-08T01:33:19;38.41;35.36;40.89;;
61095;Laerm;20450;49.074;9.158;2023-09-08T01:35:47;39.01;34.31;44.35;;
61095;Laerm;20450;49.074;9.158;2023-09-08T01:38:15;39.27;35.94;42.71;;
61095;Laerm;20450;49.074;9.158;2023-09-08T01:40:42;39.49;35.04;49.67;;
61095;Laerm;20450;49.074;9.158;2023-09-08T01:43:13;38.70;34.31;42.35;;
61095;Laerm;20450;49.074;9.158;2023-09-08T01:45:40;38.58;34.69;41.14;;
61095;Laerm;20450;49.074;9.158;2023-09-08T01:48:08;38.68;35.66;41.46;;
61095;Laerm;20450;49.074;9.158;2023-09-08T01:50:35;39.12;35.66;44.12;;
61095;Laerm;20450;49.074;9.158;2023-09-08T01:53:02;39.34;35.04;46.40;;
61095;Laerm;20450;49.074;9.158;2023-09-08T01:55:29;38.69;35.36;41.82;;
61095;Laerm;20450;49.074;9.158;2023-09-08T01:57:57;38.85;35.36;44.51;;
61095;Laerm;20450;49.074;9.158;2023-09-08T02:00:25;39.76;35.04;44.69;;
61095;Laerm;20450;49.074;9.158;2023-09-08T02:02:52;39.35;35.94;49.12;;
61095;Laerm;20450;49.074;9.158;2023-09-08T02:05:19;39.28;35.66;44.69;;
61095;Laerm;20450;49.074;9.158;2023-09-08T02:07:48;38.89;35.04;43.04;;
61095;Laerm;20450;49.074;9.158;2023-09-08T02:10:17;39.03;35.04;42.53;;
61095;Laerm;20450;49.074;9.158;2023-09-08T02:12:47;39.05;35.36;42.47;;
61095;Laerm;20450;49.074;9.158;2023-09-08T02:15:16;38.54;34.31;42.35;;
61095;Laerm;20450;49.074;9.158;2023-09-08T02:17:45;39.18;35.36;44.43;;
61095;Laerm;20450;49.074;9.158;2023-09-08T02:20:12;39.14;34.31;43.51;;
61095;Laerm;20450;49.074;9.158;2023-09-08T02:22:40;38.76;34.69;42.82;;
61095;Laerm;20450;49.074;9.158;2023-09-08T02:25:08;38.58;35.04;43.99;;
61095;Laerm;20450;49.074;9.158;2023-09-08T02:27:35;39.52;35.36;44.73;;
61095;Laerm;20450;49.074;9.158;2023-09-08T02:30:05;39.81;35.36;45.23;;
61095;Laerm;20450;49.074;9.158;2023-09-08T02:32:32;39.55;35.66;47.88;;
61095;Laerm;20450;49.074;9.158;2023-09-08T02:35:01;39.92;35.66;48.05;;
61095;Laerm;20450;49.074;9.158;2023-09-08T02:37:29;39.11;35.04;42.65;;
61095;Laerm;20450;49.074;9.158;2023-09-08T02:39:56;38.95;35.36;41.38;;
61095;Laerm;20450;49.074;9.158;2023-09-08T02:42:23;39.37;35.36;42.88;;
61095;Laerm;20450;49.074;9.158;2023-09-08T02:44:50;38.98;35.04;42.09;;
61095;Laerm;20450;49.074;9.158;2023-09-08T02:47:18;39.67;36.20;44.73;;
61095;Laerm;20450;49.074;9.158;2023-09-08T02:49:49;39.85;36.10;44.23;;
61095;Laerm;20450;49.074;9.158;2023-09-08T02:52:17;39.59;36.45;41.96;;
61095;Laerm;20450;49.074;9.158;2023-09-08T02:54:44;40.02;35.94;43.93;;
61095;Laerm;20450;49.074;9.158;2023-09-08T02:57:12;39.27;36.20;42.29;;
61095;Laerm;20450;49.074;9.158;2023-09-08T02:59:40;39.47;35.94;42.82;;
61095;Laerm;20450;49.074;9.158;2023-09-08T03:02:09;39.64;36.45;42.16;;
61095;Laerm;20450;49.074;9.158;2023-09-08T03:04:36;39.62;36.20;42.29;;
61095;Laerm;20450;49.074;9.158;2023-09-08T03:07:04;39.94;36.91;42.71;;
61095;Laerm;20450;49.074;9.158;2023-09-08T03:09:34;39.97;36.91;44.47;;
61095;Laerm;20450;49.074;9.158;2023-09-08T03:12:01;40.34;37.12;43.54;;
61095;Laerm;20450;49.074;9.158;2023-09-08T03:14:29;41.45;37.32;51.40;;
61095;Laerm;20450;49.074;9.158;2023-09-08T03:16:56;41.37;38.18;44.23;;
61095;Laerm;20450;49.074;9.158;2023-09-08T03:19:24;40.93;37.12;45.11;;
61095;Laerm;20450;49.074;9.158;2023-09-08T03:21:51;40.09;35.94;43.86;;
61095;Laerm;20450;49.074;9.158;2023-09-08T03:24:18;41.38;38.21;44.80;;
61095;Laerm;20450;49.074;9.158;2023-09-08T03:26:47;40.52;36.91;44.15;;
61095;Laerm;20450;49.074;9.158;2023-09-08T03:29:14;40.99;37.12;48.32;;
61095;Laerm;20450;49.074;9.158;2023-09-08T03:31:41;41.26;38.21;45.04;;
61095;Laerm;20450;49.074;9.158;2023-09-08T03:34:09;41.47;38.37;51.70;;
61095;Laerm;20450;49.074;9.158;2023-09-08T03:36:37;41.32;38.05;48.78;;
61095;Laerm;20450;49.074;9.158;2023-09-08T03:39:05;40.78;38.52;45.11;;
61095;Laerm;20450;49.074;9.158;2023-09-08T03:41:32;56.32;38.05;92.43;;
61095;Laerm;20450;49.074;9.158;2023-09-08T03:44:03;40.82;37.88;50.67;;
61095;Laerm;20450;49.074;9.158;2023-09-08T03:46:30;40.44;37.88;42.98;;
61095;Laerm;20450;49.074;9.158;2023-09-08T03:48:57;41.13;37.52;45.28;;
61095;Laerm;20450;49.074;9.158;2023-09-08T03:51:24;40.93;37.88;47.55;;
61095;Laerm;20450;49.074;9.158;2023-09-08T03:53:51;42.11;37.32;47.83;;
61095;Laerm;20450;49.074;9.158;2023-09-08T03:56:19;41.57;37.70;45.86;;
61095;Laerm;20450;49.074;9.158;2023-09-08T03:58:47;41.01;37.53;46.71;;
61095;Laerm;20450;49.074;9.158;2023-09-08T04:01:16;41.56;37.70;54.54;;
61095;Laerm;20450;49.074;9.158;2023-09-08T04:03:43;41.65;38.52;48.69;;
61095;Laerm;20450;49.074;9.158;2023-09-08T04:06:10;41.57;38.67;49.00;;
61095;Laerm;20450;49.074;9.158;2023-09-08T04:08:38;41.87;39.34;48.92;;
61095;Laerm;20450;49.074;9.158;2023-09-08T04:11:07;41.72;38.81;48.74;;
61095;Laerm;20450;49.074;9.158;2023-09-08T04:13:34;41.19;38.95;43.34;;
61095;Laerm;20450;49.074;9.158;2023-09-08T04:16:04;41.46;38.95;45.04;;
61095;Laerm;20450;49.074;9.158;2023-09-08T04:18:33;41.63;39.46;45.86;;
61095;Laerm;20450;49.074;9.158;2023-09-08T04:21:01;41.85;39.08;45.04;;
61095;Laerm;20450;49.074;9.158;2023-09-08T04:23:28;41.60;39.21;45.57;;
61095;Laerm;20450;49.074;9.158;2023-09-08T04:25:57;41.73;39.46;47.04;;
61095;Laerm;20450;49.074;9.158;2023-09-08T04:28:25;42.14;39.21;46.40;;
61095;Laerm;20450;49.074;9.158;2023-09-08T04:30:52;41.94;39.08;51.27;;
61095;Laerm;20450;49.074;9.158;2023-09-08T04:33:20;41.93;38.95;45.33;;
61095;Laerm;20450;49.074;9.158;2023-09-08T04:35:50;43.15;39.92;53.22;;
61095;Laerm;20450;49.074;9.158;2023-09-08T04:38:17;42.55;40.13;48.00;;
61095;Laerm;20450;49.074;9.158;2023-09-08T04:40:46;42.51;40.33;47.32;;
61095;Laerm;20450;49.074;9.158;2023-09-08T04:43:14;42.38;39.46;46.28;;
61095;Laerm;20450;49.074;9.158;2023-09-08T04:45:42;43.30;39.70;52.86;;
61095;Laerm;20450;49.074;9.158;2023-09-08T04:48:10;44.71;39.34;55.93;;
61095;Laerm;20450;49.074;9.158;2023-09-08T04:50:39;42.21;38.37;56.77;;
61095;Laerm;20450;49.074;9.158;2023-09-08T04:53:09;45.00;41.38;61.71;;
61095;Laerm;20450;49.074;9.158;2023-09-08T04:55:36;46.28;40.43;61.39;;
61095;Laerm;20450;49.074;9.158;2023-09-08T04:58:04;46.37;40.80;62.73;;
61095;Laerm;20450;49.074;9.158;2023-09-08T05:00:39;46.21;41.06;62.65;;
61095;Laerm;20450;49.074;9.158;2023-09-08T05:03:07;46.14;39.46;61.92;;
61095;Laerm;20450;49.074;9.158;2023-09-08T05:05:35;44.25;39.92;56.85;;
61095;Laerm;20450;49.074;9.158;2023-09-08T05:08:02;44.71;39.08;64.18;;
61095;Laerm;20450;49.074;9.158;2023-09-08T05:10:39;45.83;40.23;60.93;;
61095;Laerm;20450;49.074;9.158;2023-09-08T05:13:08;46.56;41.38;62.89;;
61095;Laerm;20450;49.074;9.158;2023-09-08T05:15:55;46.79;41.75;61.91;;
61095;Laerm;20450;49.074;9.158;2023-09-08T05:18:23;46.07;41.14;59.85;;
61095;Laerm;20450;49.074;9.158;2023-09-08T05:20:53;46.71;40.03;63.12;;
61095;Laerm;20450;49.074;9.158;2023-09-08T05:23:23;42.95;39.34;55.10;;
61095;Laerm;20450;49.074;9.158;2023-09-08T05:25:52;43.01;40.71;48.81;;
61095;Laerm;20450;49.074;9.158;2023-09-08T05:28:20;43.18;40.71;53.14;;
61095;Laerm;20450;49.074;9.158;2023-09-08T05:30:50;42.61;39.58;54.88;;
61095;Laerm;20450;49.074;9.158;2023-09-08T05:33:17;43.29;40.13;49.87;;
61095;Laerm;20450;49.074;9.158;2023-09-08T05:35:47;42.72;39.92;48.52;;
61095;Laerm;20450;49.074;9.158;2023-09-08T05:38:15;42.54;40.62;46.10;;
61095;Laerm;20450;49.074;9.158;2023-09-08T05:40:42;43.40;40.71;52.59;;
61095;Laerm;20450;49.074;9.158;2023-09-08T05:43:11;43.47;40.98;50.45;;
61095;Laerm;20450;49.074;9.158;2023-09-08T05:45:38;42.69;40.54;49.30;;
61095;Laerm;20450;49.074;9.158;2023-09-08T05:48:05;43.00;40.89;50.02;;
61095;Laerm;20450;49.074;9.158;2023-09-08T05:50:34;42.95;40.33;49.75;;
61095;Laerm;20450;49.074;9.158;2023-09-08T05:53:03;43.08;40.45;52.10;;
61095;Laerm;20450;49.074;9.158;2023-09-08T05:55:30;44.47;41.22;53.59;;
61095;Laerm;20450;49.074;9.158;2023-09-08T05:57:57;43.37;41.14;50.64;;
61095;Laerm;20450;49.074;9.158;2023-09-08T06:00:26;43.51;40.03;54.63;;
61095;Laerm;20450;49.074;9.158;2023-09-08T06:02:53;43.17;40.43;50.26;;
61095;Laerm;20450;49.074;9.158;2023-09-08T06:05:21;43.63;41.06;49.95;;
61095;Laerm;20450;49.074;9.158;2023-09-08T06:07:48;44.34;42.09;55.67;;
61095;Laerm;20450;49.074;9.158;2023-09-08T06:10:32;43.29;41.14;50.60;;
61095;Laerm;20450;49.074;9.158;2023-09-08T06:13:00;45.80;42.47;61.84;;
61095;Laerm;20450;49.074;9.158;2023-09-08T06:15:29;47.26;43.39;53.17;;
61095;Laerm;20450;49.074;9.158;2023-09-08T06:17:56;47.73;44.80;53.26;;
61095;Laerm;20450;49.074;9.158;2023-09-08T06:20:24;45.77;43.29;56.30;;
61095;Laerm;20450;49.074;9.158;2023-09-08T06:22:53;45.92;43.77;51.07;;
61095;Laerm;20450;49.074;9.158;2023-09-08T06:25:21;46.86;44.31;51.68;;
61095;Laerm;20450;49.074;9.158;2023-09-08T06:27:48;44.95;42.16;55.51;;
61095;Laerm;20450;49.074;9.158;2023-09-08T06:30:15;43.91;40.89;52.89;;
61095;Laerm;20450;49.074;9.158;2023-09-08T06:32:45;43.08;40.53;51.30;;
61095;Laerm;20450;49.074;9.158;2023-09-08T06:35:12;44.92;41.75;50.25;;
61095;Laerm;20450;49.074;9.158;2023-09-08T06:37:40;44.22;41.89;56.19;;
61095;Laerm;20450;49.074;9.158;2023-09-08T06:40:09;44.32;40.89;54.29;;
61095;Laerm;20450;49.074;9.158;2023-09-08T06:42:36;44.16;41.22;51.38;;
61095;Laerm;20450;49.074;9.158;2023-09-08T06:45:18;44.33;41.89;49.15;;
61095;Laerm;20450;49.074;9.158;2023-09-08T06:47:49;42.92;40.36;50.63;;
61095;Laerm;20450;49.074;9.158;2023-09-08T06:50:16;43.66;41.38;51.60;;
61095;Laerm;20450;49.074;9.158;2023-09-08T06:52:44;43.08;40.71;48.69;;
61095;Laerm;20450;49.074;9.158;2023-09-08T06:55:11;44.25;42.09;52.59;;
61095;Laerm;20450;49.074;9.158;2023-09-08T06:57:38;44.71;41.96;61.35;;
61095;Laerm;20450;49.074;9.158;2023-09-08T07:00:07;43.96;41.68;57.90;;
61095;Laerm;20450;49.074;9.158;2023-09-08T07:02:34;44.00;40.53;53.24;;
61095;Laerm;20450;49.074;9.158;2023-09-08T07:05:04;43.55;40.03;56.96;;
61095;Laerm;20450;49.074;9.158;2023-09-08T07:07:31;42.98;40.18;56.43;;
61095;Laerm;20450;49.074;9.158;2023-09-08T07:09:59;44.13;40.62;56.56;;
61095;Laerm;20450;49.074;9.158;2023-09-08T07:12:26;45.02;41.82;60.55;;
61095;Laerm;20450;49.074;9.158;2023-09-08T07:14:54;43.83;40.53;57.70;;
61095;Laerm;20450;49.074;9.158;2023-09-08T07:17:22;45.25;41.68;62.07;;
61095;Laerm;20450;49.074;9.158;2023-09-08T07:19:49;44.80;42.65;53.83;;
61095;Laerm;20450;49.074;9.158;2023-09-08T07:22:18;45.28;43.44;52.15;;
61095;Laerm;20450;49.074;9.158;2023-09-08T07:24:45;49.88;44.07;64.73;;
61095;Laerm;20450;49.074;9.158;2023-09-08T07:27:16;47.97;43.49;65.28;;
61095;Laerm;20450;49.074;9.158;2023-09-08T07:29:43;45.74;43.29;55.46;;
61095;Laerm;20450;49.074;9.158;2023-09-08T07:32:10;45.49;43.29;54.36;;
61095;Laerm;20450;49.074;9.158;2023-09-08T07:34:37;45.36;43.04;49.62;;
61095;Laerm;20450;49.074;9.158;2023-09-08T07:37:04;45.03;42.76;51.63;;
61095;Laerm;20450;49.074;9.158;2023-09-08T07:39:33;47.83;42.53;61.38;;
61095;Laerm;20450;49.074;9.158;2023-09-08T07:42:03;43.88;41.30;53.41;;
61095;Laerm;20450;49.074;9.158;2023-09-08T07:44:31;45.23;42.76;60.44;;
61095;Laerm;20450;49.074;9.158;2023-09-08T07:46:58;43.68;41.68;49.85;;
61095;Laerm;20450;49.074;9.158;2023-09-08T07:49:26;43.72;41.14;50.32;;
61095;Laerm;20450;49.074;9.158;2023-09-08T07:51:53;43.44;40.71;48.57;;
61095;Laerm;20450;49.074;9.158;2023-09-08T07:54:20;43.51;41.53;49.38;;
61095;Laerm;20450;49.074;9.158;2023-09-08T07:56:48;44.41;41.75;53.64;;
61095;Laerm;20450;49.074;9.158;2023-09-08T07:59:15;43.60;41.26;53.63;;
61095;Laerm;20450;49.074;9.158;2023-09-08T08:01:43;44.04;41.96;50.64;;
61095;Laerm;20450;49.074;9.158;2023-09-08T08:04:10;44.29;41.89;54.62;;
61095;Laerm;20450;49.074;9.158;2023-09-08T08:06:38;45.08;41.68;61.79;;
61095;Laerm;20450;49.074;9.158;2023-09-08T08:09:05;43.90;40.43;58.11;;
61095;Laerm;20450;49.074;9.158;2023-09-08T08:11:33;44.15;40.89;58.77;;
61095;Laerm;20450;49.074;9.158;2023-09-08T08:14:02;44.20;40.62;57.10;;
61095;Laerm;20450;49.074;9.158;2023-09-08T08:16:29;43.93;41.06;49.78;;
61095;Laerm;20450;49.074;9.158;2023-09-08T08:18:56;43.74;40.98;64.31;;
61095;Laerm;20450;49.074;9.158;2023-09-08T08:21:25;45.77;41.14;59.33;;
61095;Laerm;20450;49.074;9.158;2023-09-08T08:23:52;45.35;40.89;68.76;;
61095;Laerm;20450;49.074;9.158;2023-09-08T08:26:19;44.03;41.82;55.53;;
61095;Laerm;20450;49.074;9.158;2023-09-08T08:28:46;45.13;42.35;57.47;;
61095;Laerm;20450;49.074;9.158;2023-09-08T08:31:15;44.86;42.09;56.57;;
61095;Laerm;20450;49.074;9.158;2023-09-08T08:33:42;45.43;42.22;51.62;;
61095;Laerm;20450;49.074;9.158;2023-09-08T08:36:09;45.42;42.53;57.99;;
61095;Laerm;20450;49.074;9.158;2023-09-08T08:38:36;49.16;43.90;75.95;;
61095;Laerm;20450;49.074;9.158;2023-09-08T08:41:03;49.07;45.27;67.36;;
61095;Laerm;20450;49.074;9.158;2023-09-08T08:43:32;48.70;44.43;55.29;;
61095;Laerm;20450;49.074;9.158;2023-09-08T08:46:01;47.16;44.65;54.11;;
61095;Laerm;20450;49.074;9.158;2023-09-08T08:48:33;47.89;44.58;57.47;;
61095;Laerm;20450;49.074;9.158;2023-09-08T08:51:03;49.67;44.87;57.70;;
61095;Laerm;20450;49.074;9.158;2023-09-08T08:53:32;45.99;40.23;55.67;;
61095;Laerm;20450;49.074;9.158;2023-09-08T08:56:00;46.74;42.03;57.25;;
61095;Laerm;20450;49.074;9.158;2023-09-08T08:58:28;47.85;42.03;60.49;;
61095;Laerm;20450;49.074;9.158;2023-09-08T09:00:59;45.35;41.68;54.14;;
61095;Laerm;20450;49.074;9.158;2023-09-08T09:03:31;44.84;41.53;52.15;;
61095;Laerm;20450;49.074;9.158;2023-09-08T09:05:58;44.91;41.53;51.09;;
61095;Laerm;20450;49.074;9.158;2023-09-08T09:08:27;44.47;41.68;52.86;;
61095;Laerm;20450;49.074;9.158;2023-09-08T09:10:55;44.55;42.16;52.26;;
61095;Laerm;20450;49.074;9.158;2023-09-08T09:13:24;43.13;40.80;48.15;;
61095;Laerm;20450;49.074;9.158;2023-09-08T09:15:58;44.19;42.09;53.73;;
61095;Laerm;20450;49.074;9.158;2023-09-08T09:18:26;43.26;40.62;51.37;;
61095;Laerm;20450;49.074;9.158;2023-09-08T09:20:56;48.70;41.68;72.62;;
61095;Laerm;20450;49.074;9.158;2023-09-08T09:23:29;47.66;42.59;60.25;;
61095;Laerm;20450;49.074;9.158;2023-09-08T09:26:03;47.99;42.93;62.02;;
61095;Laerm;20450;49.074;9.158;2023-09-08T09:28:34;46.17;42.74;55.79;;
61095;Laerm;20450;49.074;9.158;2023-09-08T09:31:13;48.60;42.22;65.87;;
61095;Laerm;20450;49.074;9.158;2023-09-08T09:33:42;49.14;42.76;64.60;;
61095;Laerm;20450;49.074;9.158;2023-09-08T09:36:21;46.53;42.88;57.99;;
61095;Laerm;20450;49.074;9.158;2023-09-08T09:38:50;44.89;42.71;54.23;;
61095;Laerm;20450;49.074;9.158;2023-09-08T09:41:17;46.53;42.22;59.20;;
61095;Laerm;20450;49.074;9.158;2023-09-08T09:43:44;47.53;42.53;59.33;;
61095;Laerm;20450;49.074;9.158;2023-09-08T09:46:12;45.72;43.77;52.17;;
61095;Laerm;20450;49.074;9.158;2023-09-08T09:48:42;46.09;43.90;52.31;;
61095;Laerm;20450;49.074;9.158;2023-09-08T09:51:19;46.40;43.81;53.36;;
61095;Laerm;20450;49.074;9.158;2023-09-08T09:53:49;46.26;43.76;55.98;;
61095;Laerm;20450;49.074;9.158;2023-09-08T09:56:19;45.87;43.49;55.42;;
61095;Laerm;20450;49.074;9.158;2023-09-08T09:58:48;45.90;43.72;52.14;;
61095;Laerm;20450;49.074;9.158;2023-09-08T10:01:16;45.03;42.35;54.12;;
61095;Laerm;20450;49.074;9.158;2023-09-08T10:03:49;44.59;41.96;50.43;;
61095;Laerm;20450;49.074;9.158;2023-09-08T10:06:23;44.15;41.61;54.12;;
61095;Laerm;20450;49.074;9.158;2023-09-08T10:08:51;44.25;42.22;51.62;;
61095;Laerm;20450;49.074;9.158;2023-09-08T10:11:21;45.02;42.82;53.05;;
61095;Laerm;20450;49.074;9.158;2023-09-08T10:13:53;43.82;41.41;49.15;;
61095;Laerm;20450;49.074;9.158;2023-09-08T10:16:27;44.15;41.53;50.49;;
61095;Laerm;20450;49.074;9.158;2023-09-08T10:18:58;43.52;41.46;54.61;;
61095;Laerm;20450;49.074;9.158;2023-09-08T10:21:32;43.69;40.89;52.15;;
61095;Laerm;20450;49.074;9.158;2023-09-08T10:24:11;43.26;41.06;51.86;;
61095;Laerm;20450;49.074;9.158;2023-09-08T10:26:50;44.28;41.46;61.69;;
61095;Laerm;20450;49.074;9.158;2023-09-08T10:29:18;43.98;41.03;52.82;;
61095;Laerm;20450;49.074;9.158;2023-09-08T10:31:46;44.41;40.89;59.28;;
61095;Laerm;20450;49.074;9.158;2023-09-08T10:34:16;43.46;39.92;53.58;;
61095;Laerm;20450;49.074;9.158;2023-09-08T10:36:46;43.08;40.71;49.69;;
61095;Laerm;20450;49.074;9.158;2023-09-08T10:39:28;42.41;40.03;51.45;;
61095;Laerm;20450;49.074;9.158;2023-09-08T10:42:24;42.79;39.81;55.57;;
61095;Laerm;20450;49.074;9.158;2023-09-08T10:45:01;43.85;41.19;49.44;;
61095;Laerm;20450;49.074;9.158;2023-09-08T10:47:34;44.94;42.16;53.64;;
61095;Laerm;20450;49.074;9.158;2023-09-08T10:50:08;44.84;42.71;53.78;;
61095;Laerm;20450;49.074;9.158;2023-09-08T10:52:44;45.10;42.29;56.34;;
61095;Laerm;20450;49.074;9.158;2023-09-08T10:55:13;45.39;43.19;51.67;;
61095;Laerm;20450;49.074;9.158;2023-09-08T10:57:45;45.30;43.44;50.10;;
61095;Laerm;20450;49.074;9.158;2023-09-08T11:00:18;47.28;43.19;71.36;;
61095;Laerm;20450;49.074;9.158;2023-09-08T11:02:49;45.75;43.58;55.99;;
61095;Laerm;20450;49.074;9.158;2023-09-08T11:05:17;45.40;43.04;49.93;;
61095;Laerm;20450;49.074;9.158;2023-09-08T11:07:48;44.99;42.47;52.31;;
61095;Laerm;20450;49.074;9.158;2023-09-08T11:10:15;44.95;42.09;54.47;;
61095;Laerm;20450;49.074;9.158;2023-09-08T11:12:42;44.48;41.14;56.39;;
61095;Laerm;20450;49.074;9.158;2023-09-08T11:15:10;43.83;41.30;54.72;;
61095;Laerm;20450;49.074;9.158;2023-09-08T11:17:38;46.27;40.71;50.64;;
61095;Laerm;20450;49.074;9.158;2023-09-08T11:20:07;46.51;42.59;51.44;;
61095;Laerm;20450;49.074;9.158;2023-09-08T11:22:36;47.94;44.23;55.07;;
61095;Laerm;20450;49.074;9.158;2023-09-08T11:25:08;47.34;44.31;64.46;;
61095;Laerm;20450;49.074;9.158;2023-09-08T11:27:35;46.52;44.19;51.87;;
61095;Laerm;20450;49.074;9.158;2023-09-08T11:30:03;47.30;44.07;50.93;;
61095;Laerm;20450;49.074;9.158;2023-09-08T11:32:32;45.41;42.76;51.03;;
61095;Laerm;20450;49.074;9.158;2023-09-08T11:35:03;44.49;39.46;51.13;;
61095;Laerm;20450;49.074;9.158;2023-09-08T11:37:35;43.80;39.34;50.44;;
61095;Laerm;20450;49.074;9.158;2023-09-08T11:40:04;46.46;43.68;52.04;;
61095;Laerm;20450;49.074;9.158;2023-09-08T11:42:33;43.59;40.98;51.90;;
61095;Laerm;20450;49.074;9.158;2023-09-08T11:45:01;44.58;40.96;50.69;;
61095;Laerm;20450;49.074;9.158;2023-09-08T11:47:32;43.43;40.33;52.59;;
61095;Laerm;20450;49.074;9.158;2023-09-08T11:49:59;44.48;41.22;53.09;;
61095;Laerm;20450;49.074;9.158;2023-09-08T11:52:26;43.86;41.14;52.13;;
61095;Laerm;20450;49.074;9.158;2023-09-08T11:54:54;43.95;40.33;54.81;;
61095;Laerm;20450;49.074;9.158;2023-09-08T11:57:36;44.18;40.53;51.17;;
61095;Laerm;20450;49.074;9.158;2023-09-08T12:00:06;43.62;40.33;50.35;;
61095;Laerm;20450;49.074;9.158;2023-09-08T12:02:34;43.63;39.70;52.26;;
61095;Laerm;20450;49.074;9.158;2023-09-08T12:05:02;43.05;40.13;47.48;;
61095;Laerm;20450;49.074;9.158;2023-09-08T12:07:29;43.77;40.23;52.57;;
61095;Laerm;20450;49.074;9.158;2023-09-08T12:09:57;44.09;40.98;53.54;;
61095;Laerm;20450;49.074;9.158;2023-09-08T12:12:26;45.24;40.98;55.02;;
61095;Laerm;20450;49.074;9.158;2023-09-08T12:14:54;45.08;42.09;50.44;;
61095;Laerm;20450;49.074;9.158;2023-09-08T12:17:21;45.22;43.24;50.23;;
61095;Laerm;20450;49.074;9.158;2023-09-08T12:19:49;44.54;41.38;52.50;;
61095;Laerm;20450;49.074;9.158;2023-09-08T12:22:16;43.63;41.61;49.77;;
61095;Laerm;20450;49.074;9.158;2023-09-08T12:24:48;45.21;41.82;54.56;;
61095;Laerm;20450;49.074;9.158;2023-09-08T12:27:18;46.20;43.14;55.76;;
61095;Laerm;20450;49.074;9.158;2023-09-08T12:29:54;46.60;44.15;52.90;;
61095;Laerm;20450;49.074;9.158;2023-09-08T12:32:22;46.76;44.31;51.70;;
61095;Laerm;20450;49.074;9.158;2023-09-08T12:34:50;45.84;43.68;48.94;;
61095;Laerm;20450;49.074;9.158;2023-09-08T12:37:21;45.23;42.88;51.53;;
61095;Laerm;20450;49.074;9.158;2023-09-08T12:39:48;44.94;43.04;48.48;;
61095;Laerm;20450;49.074;9.158;2023-09-08T12:42:15;43.84;41.61;49.63;;
61095;Laerm;20450;49.074;9.158;2023-09-08T12:44:42;44.14;41.82;54.59;;
61095;Laerm;20450;49.074;9.158;2023-09-08T12:47:12;43.42;40.98;52.76;;
61095;Laerm;20450;49.074;9.158;2023-09-08T12:49:40;43.67;40.53;54.10;;
61095;Laerm;20450;49.074;9.158;2023-09-08T12:52:07;45.49;41.89;57.66;;
61095;Laerm;20450;49.074;9.158;2023-09-08T12:54:35;44.27;41.89;50.13;;
61095;Laerm;20450;49.074;9.158;2023-09-08T12:57:03;43.32;40.89;52.84;;
61095;Laerm;20450;49.074;9.158;2023-09-08T12:59:32;45.22;41.75;57.47;;
61095;Laerm;20450;49.074;9.158;2023-09-08T13:02:01;44.27;41.22;51.85;;
61095;Laerm;20450;49.074;9.158;2023-09-08T13:04:29;44.34;41.06;53.65;;
61095;Laerm;20450;49.074;9.158;2023-09-08T13:06:57;43.51;39.92;55.76;;
61095;Laerm;20450;49.074;9.158;2023-09-08T13:09:24;43.33;39.21;53.29;;
61095;Laerm;20450;49.074;9.158;2023-09-08T13:11:51;42.60;38.67;49.14;;
61095;Laerm;20450;49.074;9.158;2023-09-08T13:14:18;42.91;39.08;54.63;;
61095;Laerm;20450;49.074;9.158;2023-09-08T13:16:45;42.90;38.95;50.42;;
61095;Laerm;20450;49.074;9.158;2023-09-08T13:19:14;44.43;40.89;52.06;;
61095;Laerm;20450;49.074;9.158;2023-09-08T13:21:42;45.03;42.59;51.37;;
61095;Laerm;20450;49.074;9.158;2023-09-08T13:24:10;44.62;42.82;52.44;;
61095;Laerm;20450;49.074;9.158;2023-09-08T13:26:37;44.27;41.68;51.16;;
61095;Laerm;20450;49.074;9.158;2023-09-08T13:29:08;45.60;42.22;66.93;;
61095;Laerm;20450;49.074;9.158;2023-09-08T13:31:36;46.85;42.29;63.27;;
61095;Laerm;20450;49.074;9.158;2023-09-08T13:34:03;45.22;42.53;52.66;;
61095;Laerm;20450;49.074;9.158;2023-09-08T13:36:31;46.24;43.86;54.52;;
61095;Laerm;20450;49.074;9.158;2023-09-08T13:39:00;46.14;43.99;52.02;;
61095;Laerm;20450;49.074;9.158;2023-09-08T13:41:45;46.60;43.81;50.85;;
61095;Laerm;20450;49.074;9.158;2023-09-08T13:44:12;47.24;44.51;55.03;;
61095;Laerm;20450;49.074;9.158;2023-09-08T13:46:40;49.10;46.15;54.42;;
61095;Laerm;20450;49.074;9.158;2023-09-08T13:49:08;47.66;44.58;56.08;;
61095;Laerm;20450;49.074;9.158;2023-09-08T13:51:38;46.12;43.86;52.62;;
61095;Laerm;20450;49.074;9.158;2023-09-08T13:54:07;46.59;44.35;56.38;;